Tuesday, January 15, 2019, 7:34 PM EST
Back to Local

K12N, Aeroflex-andover Airport

Location: Newton, NJ, United States Lat: 41.017
Local Time: 7:34 PM EST ( 0:34 GMT) Lon: -74.733
Time Zone: US/Eastern Elev: 583 ft

Show me the last for .
Show Decoded

2019-01-15 18:54 METAR K12N 152354Z AUTO 00000KT M04/M08 A3011 RMK AO1 SLP211 T10391078 10022
                 21044 53007 $ =
2019-01-15 17:54 METAR K12N 152254Z AUTO 00000KT M03/M08 A3011 RMK AO1 SLP211 T10281083 $ =
2019-01-15 16:54 METAR K12N 152154Z AUTO 00000KT M02/M08 A3009 RMK AO1 SLP205 T10171083 $ =
2019-01-15 15:54 METAR K12N 152054Z AUTO 32003KT 02/M09 A3009 RMK AO1 SLP203 T00171089 56007 $ =
2019-01-15 14:54 METAR K12N 151954Z AUTO 26003KT 02/M09 A3009 RMK AO1 SLP204 T00171089 $ =
2019-01-15 13:54 METAR K12N 151854Z AUTO VRB05KT 01/M08 A3009 RMK AO1 SLP205 T00061083 $ =
2019-01-15 12:54 METAR K12N 151754Z AUTO 30005KT 00/M09 A3011 RMK AO1 SLP210 T00001089 10000
                 21067 58020 $ =
2019-01-15 11:54 METAR K12N 151654Z AUTO 35007KT M01/M08 A3014 RMK AO1 SLP221 T10111083 $ =
2019-01-15 10:54 METAR K12N 151554Z AUTO VRB06KT M02/M08 A3017 RMK AO1 SLP231 T10171083 $ =
2019-01-15 09:54 METAR K12N 151454Z AUTO 35004KT M03/M08 A3017 RMK AO1 SLP231 T10331083 53013 =
2019-01-15 08:54 METAR K12N 151354Z AUTO 36003KT M05/M09 A3016 RMK AO1 SLP228 T10501094 =
2019-01-15 07:54 METAR K12N 151254Z AUTO 35004KT M06/M11 A3014 RMK AO1 SLP222 T10611106 =
2019-01-15 06:54 METAR K12N 151154Z AUTO 35005KT M07/M11 A3013 RMK AO1 SLP219 T10671111 11061
                 21100 53009 =
2019-01-15 05:54 METAR K12N 151054Z AUTO 00000KT M09/M12 A3011 RMK AO1 SLP213 T10941117 =
2019-01-15 04:54 METAR K12N 150954Z AUTO 00000KT M09/M12 A3010 RMK AO1 SLP209 T10941117 =
2019-01-15 03:54 METAR K12N 150854Z AUTO 00000KT M09/M11 A3010 RMK AO1 SLP209 T10941111 58003 =
2019-01-15 02:54 METAR K12N 150754Z AUTO 00000KT M09/M12 A3011 RMK AO1 SLP212 T10891117 =
2019-01-15 01:54 METAR K12N 150654Z AUTO 00000KT M09/M11 A3011 RMK AO1 SLP212 T10891111 =
2019-01-15 00:54 METAR K12N 150554Z AUTO 00000KT M08/M11 A3011 RMK AO1 SLP212 T10831106 11056
                 21089 58008 =
2019-01-14 23:54 METAR K12N 150454Z AUTO 00000KT M08/M11 A3012 RMK AO1 SLP216 T10831106 400001117
                 =
2019-01-14 22:54 METAR K12N 150354Z AUTO 00000KT M08/M11 A3013 RMK AO1 SLP221 T10831111 =
2019-01-14 21:54 METAR K12N 150254Z AUTO 00000KT M08/M11 A3013 RMK AO1 SLP222 T10781106 55001 =
2019-01-14 20:54 METAR K12N 150154Z AUTO 00000KT M07/M11 A3013 RMK AO1 SLP223 T10721106 =
2019-01-14 19:54 METAR K12N 150054Z AUTO 00000KT M07/M11 A3013 RMK AO1 SLP221 T10671106 =

Support USWX by starting your Amazon purchase here.